TimeCST,TemperatureF,Dew PointF,Humidity,Sea Level PressureIn,VisibilityMPH,Wind Direction,Wind SpeedMPH,Gust SpeedMPH,PrecipitationIn,Events,Conditions,WindDirDegrees,DateUTC
12:15 AM,38.8,29.1,68,30.08,10.0,NNW,4.6,-,N/A,,Mostly Cloudy,330,2012-11-26 06:15:00
12:35 AM,38.8,28.8,67,30.08,10.0,NNW,8.1,-,N/A,,Mostly Cloudy,340,2012-11-26 06:35:00
12:55 AM,38.1,28.4,68,30.07,10.0,North,5.8,-,N/A,,Scattered Clouds,350,2012-11-26 06:55:00
1:15 AM,37.4,28.4,70,30.08,10.0,North,4.6,-,N/A,,Scattered Clouds,350,2012-11-26 07:15:00
1:35 AM,36.5,28.4,72,30.10,10.0,North,5.8,-,N/A,,Clear,350,2012-11-26 07:35:00
1:55 AM,36.0,28.4,74,30.10,10.0,North,6.9,-,N/A,,Clear,350,2012-11-26 07:55:00
2:15 AM,34.9,28.2,77,30.10,10.0,North,6.9,-,N/A,,Clear,350,2012-11-26 08:15:00
2:35 AM,34.7,27.9,76,30.10,10.0,North,5.8,-,N/A,,Clear,350,2012-11-26 08:35:00
2:55 AM,33.8,27.1,77,30.12,10.0,Calm,Calm,-,N/A,,Clear,0,2012-11-26 08:55:00
3:15 AM,32.0,27.1,82,30.12,10.0,Calm,Calm,-,N/A,,Clear,0,2012-11-26 09:15:00
3:35 AM,30.9,27.3,86,30.13,10.0,Calm,Calm,-,N/A,,Clear,0,2012-11-26 09:35:00
3:55 AM,30.4,27.0,87,30.13,10.0,Calm,Calm,-,N/A,,Clear,0,2012-11-26 09:55:00
4:15 AM,29.7,26.2,87,30.13,10.0,NW,4.6,-,N/A,,Clear,320,2012-11-26 10:15:00
4:35 AM,32.0,27.1,82,30.14,10.0,NW,3.5,-,N/A,,Clear,320,2012-11-26 10:35:00
4:55 AM,32.5,26.8,79,30.14,10.0,North,6.9,-,N/A,,Clear,350,2012-11-26 10:55:00
5:15 AM,32.5,26.6,79,30.15,10.0,North,8.1,-,N/A,,Clear,350,2012-11-26 11:15:00
5:35 AM,32.5,26.4,78,30.16,10.0,North,8.1,-,N/A,,Clear,360,2012-11-26 11:35:00
5:55 AM,32.2,26.6,80,30.16,10.0,North,9.2,-,N/A,,Clear,350,2012-11-26 11:55:00
6:15 AM,32.2,26.4,79,30.16,10.0,North,11.5,-,N/A,,Clear,350,2012-11-26 12:15:00
6:35 AM,32.0,26.2,79,30.18,10.0,North,6.9,-,N/A,,Clear,360,2012-11-26 12:35:00
6:55 AM,32.0,26.6,80,30.18,10.0,North,5.8,-,N/A,,Clear,360,2012-11-26 12:55:00
7:15 AM,32.0,27.1,82,30.18,10.0,North,9.2,-,N/A,,Scattered Clouds,360,2012-11-26 13:15:00
7:35 AM,32.7,27.3,81,30.19,10.0,North,12.7,-,N/A,,Scattered Clouds,360,2012-11-26 13:35:00
7:55 AM,33.8,27.0,76,30.19,10.0,North,11.5,-,N/A,,Clear,10,2012-11-26 13:55:00
8:15 AM,33.8,26.6,75,30.20,10.0,North,10.4,-,N/A,,Clear,10,2012-11-26 14:15:00
8:35 AM,35.6,26.6,70,30.21,10.0,North,11.5,-,N/A,,Clear,360,2012-11-26 14:35:00
8:55 AM,37.0,26.6,66,30.22,10.0,North,12.7,-,N/A,,Clear,10,2012-11-26 14:55:00
9:15 AM,37.0,26.4,65,30.22,10.0,North,11.5,-,N/A,,Clear,360,2012-11-26 15:15:00
9:35 AM,36.9,25.7,64,30.24,10.0,North,11.5,-,N/A,,Clear,360,2012-11-26 15:35:00
9:55 AM,36.9,24.4,61,30.24,10.0,North,11.5,-,N/A,,Clear,10,2012-11-26 15:55:00
10:15 AM,38.3,22.8,54,30.24,10.0,NNE,11.5,-,N/A,,Clear,20,2012-11-26 16:15:00
10:35 AM,39.2,21.9,50,30.24,10.0,North,8.1,-,N/A,,Clear,360,2012-11-26 16:35:00
10:55 AM,40.3,22.3,49,30.24,10.0,NNE,9.2,-,N/A,,Clear,20,2012-11-26 16:55:00
11:15 AM,41.0,23.2,49,30.23,10.0,NNW,6.9,-,N/A,,Clear,340,2012-11-26 17:15:00
11:35 AM,40.8,22.1,47,30.23,10.0,North,9.2,-,N/A,,Clear,10,2012-11-26 17:35:00
11:55 AM,40.5,21.7,47,30.22,10.0,North,8.1,-,N/A,,Clear,350,2012-11-26 17:55:00
12:15 PM,41.2,21.4,45,30.21,10.0,NNE,6.9,-,N/A,,Clear,30,2012-11-26 18:15:00
12:35 PM,42.1,21.7,44,30.21,10.0,North,6.9,-,N/A,,Scattered Clouds,360,2012-11-26 18:35:00
12:55 PM,42.4,21.0,43,30.21,10.0,NNE,9.2,-,N/A,,Scattered Clouds,20,2012-11-26 18:55:00
1:15 PM,42.3,20.3,42,30.22,10.0,NNW,12.7,-,N/A,,Scattered Clouds,340,2012-11-26 19:15:00
1:35 PM,40.3,19.0,43,30.22,10.0,North,13.8,-,N/A,,Scattered Clouds,10,2012-11-26 19:35:00
1:55 PM,38.7,18.5,44,30.23,10.0,North,12.7,-,N/A,,Mostly Cloudy,360,2012-11-26 19:55:00
2:15 PM,37.6,18.5,46,30.23,10.0,North,13.8,-,N/A,,Overcast,350,2012-11-26 20:15:00
2:35 PM,37.4,18.7,47,30.23,10.0,North,12.7,-,N/A,,Overcast,10,2012-11-26 20:35:00
2:55 PM,36.7,19.6,50,30.24,10.0,North,11.5,-,N/A,,Overcast,350,2012-11-26 20:55:00
3:15 PM,36.0,19.9,52,30.25,10.0,North,9.2,-,N/A,,Mostly Cloudy,360,2012-11-26 21:15:00
3:35 PM,36.5,18.9,49,30.26,10.0,NNW,10.4,-,N/A,,Mostly Cloudy,340,2012-11-26 21:35:00
3:55 PM,36.7,19.0,49,30.26,10.0,North,11.5,-,N/A,,Mostly Cloudy,360,2012-11-26 21:55:00
4:15 PM,35.8,22.1,58,30.26,10.0,North,9.2,-,N/A,,Scattered Clouds,350,2012-11-26 22:15:00
4:35 PM,34.7,23.7,64,30.26,5.0,North,8.1,-,N/A,,Haze,350,2012-11-26 22:35:00
4:55 PM,34.9,23.7,64,30.27,10.0,NNW,11.5,-,N/A,,Clear,340,2012-11-26 22:55:00
5:15 PM,34.7,23.9,65,30.28,10.0,North,10.4,-,N/A,,Clear,350,2012-11-26 23:15:00
5:35 PM,34.9,22.6,61,30.29,10.0,North,11.5,-,N/A,,Clear,360,2012-11-26 23:35:00
5:55 PM,35.4,20.8,55,30.30,10.0,NNW,9.2,-,N/A,,Scattered Clouds,340,2012-11-26 23:55:00
6:15 PM,35.6,19.9,53,30.30,10.0,North,11.5,16.1,N/A,,Scattered Clouds,350,2012-11-27 00:15:00
6:35 PM,35.2,19.9,54,30.31,10.0,NNW,9.2,-,N/A,,Scattered Clouds,340,2012-11-27 00:35:00
6:55 PM,35.1,20.3,55,30.31,10.0,North,8.1,-,N/A,,Clear,350,2012-11-27 00:55:00
7:15 PM,34.9,20.1,55,30.31,10.0,North,9.2,-,N/A,,Clear,350,2012-11-27 01:15:00
7:35 PM,34.9,20.3,55,30.32,10.0,NNW,6.9,-,N/A,,Clear,340,2012-11-27 01:35:00
7:55 PM,34.3,21.6,60,30.32,10.0,North,4.6,-,N/A,,Clear,360,2012-11-27 01:55:00
8:15 PM,34.7,20.7,57,30.32,10.0,North,5.8,-,N/A,,Mostly Cloudy,350,2012-11-27 02:15:00
8:35 PM,34.7,21.0,57,30.32,10.0,NNW,5.8,-,N/A,,Overcast,340,2012-11-27 02:35:00
8:55 PM,34.3,21.0,58,30.33,10.0,NNW,6.9,-,N/A,,Overcast,340,2012-11-27 02:55:00
9:15 PM,34.3,21.2,59,30.33,10.0,NNW,6.9,-,N/A,,Overcast,340,2012-11-27 03:15:00
9:35 PM,34.3,21.0,58,30.34,10.0,NNW,6.9,-,N/A,,Scattered Clouds,340,2012-11-27 03:35:00
9:55 PM,34.2,21.2,59,30.34,10.0,NNW,8.1,-,N/A,,Mostly Cloudy,340,2012-11-27 03:55:00
10:15 PM,33.8,23.0,65,30.34,10.0,NNW,8.1,-,N/A,,Overcast,340,2012-11-27 04:15:00
10:35 PM,33.4,23.7,68,30.34,10.0,NNW,6.9,-,N/A,,Overcast,340,2012-11-27 04:35:00
10:55 PM,33.1,23.9,69,30.34,10.0,NNW,6.9,-,N/A,,Mostly Cloudy,340,2012-11-27 04:55:00
11:15 PM,32.2,23.5,70,30.34,10.0,North,6.9,-,N/A,,Scattered Clouds,350,2012-11-27 05:15:00
11:35 PM,31.8,23.5,71,30.35,10.0,NNW,6.9,-,N/A,,Clear,340,2012-11-27 05:35:00
11:55 PM,31.5,23.5,73,30.35,10.0,NNW,8.1,-,N/A,,Clear,340,2012-11-27 05:55:00